Lovell Field
KCHA : now visible

Airfield :











YOU CAN JOIN US ON...

 
LOGIN :

Register | Disclaimer

   EN    FR    IT 

 









Legend :    VFR   Marginal VFR   IFR   Intensive IFR   Very Intensive IFR
Visi :
Ceiling :
>= 8 km
>= 3000ft
5 to 8 km
1000 to 3000 ft
1500m to 5 km
500 to 1000 ft
800 to 1500m
200 to 500 ft
< 800m
< 200 ft
Symbols :   Thunderstorms  Fog  Heavy snow  Heavy precipitations  Wind > 20 kt






- Airport Elevation : 683 ft
- IATA code : CHA


KCHA - Lovell Field

CURRENT METAR :
  • 261153Z 00000KT 10SM FEW008 BKN015 OVC043 21/19 A3005 RMK AO2 SLP169 70001 T02060189 10206 20206 53013

EXPIRED METARs :
  • 261138Z 00000KT 10SM FEW007 BKN015 OVC043 21/18 A3005 RMK AO2 T02060183
  • 261053Z 00000KT 10SM FEW007 OVC013 21/18 A3003 RMK AO2 SLP162 T02060183
  • 260953Z 00000KT 10SM FEW007 OVC013 21/19 A3002 RMK AO2 SLP158 T02060189
  • 260948Z 05003KT 10SM FEW007 OVC013 21/19 A3002 RMK AO2
  • 260936Z 04003KT 10SM OVC010 21/19 A3001 RMK AO2 CIG 008V012 T02060189
  • 260915Z 05003KT 9SM OVC009 21/19 A3001 RMK AO2 CIG 005V011 T02060189
  • 260853Z 05003KT 10SM SCT005 OVC013 21/19 A3001 RMK AO2 SLP156 T02060194 55003

TAF KCHA
Valid from the 26 at 12:00 until the 27 at 12:00 UTC


261136Z 2612/2712 00000KT P6SM SCT007 OVC013
TEMPO 2612/2614 BKN007
FM261500 00000KT P6SM BKN015
FM261800 VRB03KT P6SM BKN035
FM270000 00000KT P6SM BKN060
FM270600 00000KT P6SM BKN250
FM271000 00000KT P6SM BKN120
KZTL FIR / North America



MET'MAP, your aeronautical weather chart ! - Copyright ORBIFLY December 2007 - Disclaimer

ORBIFLY MET'MAP TEAM :

Programming & Development : Alexandra Zaïnal
Concept & original design : Baudouin d'Aumeries
Assistance for programming : Marc-Olivier Méhu
Technical & hardware support : Manuel Goepfert

Contact : metmap@orbifly.com




SOURCES & CREDITS :

   NOAA       Earth
Advisory